Wednesday, May 23, 2018, 5:21 AM GMT
Back to Local

CWTN, Cap Tourmente

Location: , , Canada Lat: 47.067
Local Time: 5:21 AM GMT ( 5:21 GMT) Lon: -70.8
Time Zone: GMT Elev: 19 ft

Show me the last for .
Show Coded

Time T Td Feel RH Dir Speed Gust Alt SLP Vis Weather Sky Remarks
2018-05-23 05:00 55 52 - 90 270° 2 - - 29.83 0 None
2018-05-23 04:00 58 52 - 77 280° 2 - - 29.85 0 None
2018-05-23 03:00 58 51 - 75 250° 3 - - 29.85 0 None
2018-05-23 02:00 62 50 - 64 250° 2 - - 29.84 0 None
2018-05-23 01:00 64 49 - 57 260° 9 - - 29.84 0 None
2018-05-23 00:00 67 48 - 50 250° 9 - - 29.85 0 Peak wind: 25 mph (22 kts) from 230° at 13 min
2018-05-22 23:00 68 48 - 48 250° 12 23 - 29.84 0 Peak wind: 25 mph (22 kts) from 260° at 33 min
2018-05-22 22:00 73 46 - 38 250° 15 29 - 29.83 0 Peak wind: 28 mph (25 kts) from 260° at 26 min
2018-05-22 21:00 77 43 - 29 250° 13 23 - 29.83 0 Peak wind: 24 mph (21 kts) from 230° at 47 min
2018-05-22 20:00 79 43 - 28 250° 10 18 - 29.84 0 Peak wind: 19 mph (17 kts) from 220° at 35 min
2018-05-22 19:00 77 42 - 29 250° 12 20 - 29.87 0 Peak wind: 23 mph (20 kts) from 230° at 21 min
2018-05-22 18:00 78 44 - 29 250° 9 - - 29.91 0 Peak wind: 19 mph (17 kts) from 240° at 48 min
2018-05-22 17:00 73 45 - 36 300° 5 - - 29.95 0 None
2018-05-22 16:00 69 41 - 36 290° 5 - - 30.00 0 None
2018-05-22 15:00 69 38 - 32 270° 6 - - 30.01 0 None
2018-05-22 14:00 63 38 - 38 250° 6 - - 30.04 0 None
2018-05-22 13:00 59 37 - 42 230° 3 - - 30.07 0 None
2018-05-22 12:00 54 37 - 53 210° 2 - - 30.09 0 None
2018-05-22 11:00 50 35 - 54 270° 2 - - 30.10 0 None
2018-05-22 10:00 49 30 - 47 310° 1 - - 30.11 0 None
2018-05-22 09:00 47 29 - 51 330° 1 - - 30.11 0 None
2018-05-22 08:00 48 29 - 47 320° 1 - - 30.10 0 None
2018-05-22 07:00 47 31 45 53 330° 5 - - 30.11 0 None
2018-05-22 06:00 48 31 46 51 330° 5 - - 30.11 0 None

Support USWX by starting your Amazon purchase here.